Woodfords, California
Current Conditions -  °F | °C
As of 6:53 PM on Friday 21 Nov 2014 (Local Time) from KTVL Reporting Station
Overcast Overcast  
Wind Chill: 38°   Ceiling: 3500
Heat Index: 42°   Visibility: 10mi
Dew Point: 30°   Wind: 7mph
Humidity: 62%   Direction: 200°SSW
Pressure: 30.1"   Gusts: NA
Location:  38.6924°N, 119.835°W
Report Text: KTVL 220253Z AUTO 20006KT 10SM OVC035 06/M01 A3010 RMK AO2 SLP190 T00561011 51007
Loading
Personal Weather Stations






























Interactive Weather Map New forecast layout! Learn more

10-Day Weather Forecast

Advertisements
Track Severe Weather on mobile